Historyczne dane pomiarowe

Dodano dane terminowe – wersja testowa.

Dane z okresu 1951-2019

Wersja bazy: 1.34 [2019-03-16, lista zmian], aktualizacja planowana na 2019-04-15

Dane meteo z obszaru Polski uzyskane na podstawie danych udostępnionych przez Instytut Meteorologii i Gospodarki Wodnej – Państwowy Instytut Badawczy.

 

Wybierz Datę:    

       

TemperaturaWilgotnośćZachmurzenieWiatrCiśnienieWidzialnośćZjawiska
 Data    tng td wb rh cc ccl cl cm ch dir g1 g2 mslp ppp      
1999-08-01 00:00:00 19.0--- 7.9 12.949wxwxwxwx4wx--1019.0 996.3 0.0---wx
1999-08-01 01:00:00 18.1--- 9.6 13.358wxwxwx4wx--1019.2 996.5----wx
1999-08-01 02:00:00 17.5--- 10.5 13.564wxwxwx3wx--1019.2 996.4----wx
1999-08-01 03:00:00 17.1--- 11.0 13.668wxwxwx3wx--1019.4 996.6----wx
1999-08-01 04:00:00 16.4--- 12.0 13.875wxwxwx3wx--1019.7 996.8----wx
1999-08-01 05:00:00 17.6--- 11.8 14.269wxwxwx3wx--1019.8 997.0----wx
1999-08-01 06:00:00 19.0--- 10.7 14.259wxwxwx3wx--1020.0 997.3 0.0---wx
1999-08-01 07:00:00 20.2--- 10.4 14.553wxwxwx3wx--1020.1 997.5----wx
1999-08-01 08:00:00 23.1--- 9.7 15.342wxwxwx3wx--1019.9 997.5----wx
1999-08-01 09:00:00 24.4--- 7.8 15.035wxwxwxwx4wx--1019.5 997.2----wx
1999-08-01 10:00:00 25.2--- 6.5 14.830wxwxwxwx4wx--1019.1 996.9----wx
1999-08-01 11:00:00 25.6--- 6.0 14.829wxwxwxwx4wx--1018.9 996.7----wx
1999-08-01 12:00:00 26.8--- 6.4 15.427wxwxwxwx4wx--1018.4 996.3 0.0---wx
1999-08-01 13:00:00 27.1--- 7.2 15.828wxwxwxwx3wx--1018.0 996.0----wx
1999-08-01 14:00:00 27.2--- 6.5 15.627wxwxwxwx2wx--1017.6 995.6----wx
1999-08-01 15:00:00 26.4--- 6.0 15.127wxwxwxwx4wx--1017.5 995.4----wx
1999-08-01 16:00:00 25.9--- 6.5 15.129wxwxwxwx3wx--1017.4 995.3----wx
1999-08-01 17:00:00 25.6--- 6.0 14.829wxwxwxwx3wx--1017.4 995.3----wx
1999-08-01 18:00:00 24.5--- 6.4 14.531wxwxwxwx2wx--1017.5 995.3 0.0---wx
1999-08-01 19:00:00 22.7--- 5.9 13.634wxwxwxwx2wx--1018.0 995.6----wx
1999-08-01 20:00:00 21.6--- 6.8 13.538wxwxwx4wx--1018.4 996.0----wx
1999-08-01 21:00:00 20.6--- 6.6 13.040wxwxwx4wx--1018.8 996.3----wx
1999-08-01 22:00:00 19.4--- 6.3 12.443wxwxwx4wx--1019.0 996.4----wx
1999-08-01 23:00:00 18.4--- 6.4 12.045wxwxwx4wx--1019.2 996.5----wx

 

Źródłem pochodzenia danych jest Instytut Meteorologii i Gospodarki Wodnej – Państwowy Instytut Badawczy. Dane Instytutu Meteorologii i Gospodarki Wodnej – Państwowego Instytutu Badawczego zostały przetworzone.

Dane źródłowe można odnaleźć na stronie https://dane.imgw.pl